Time;durP1;ratioP1;P1;durP2;ratioP2;P2;SDS_P1;SDS_P2;PMS_P1;PMS_P2;Temp;Humidity;BMP_temperature;BMP_pressure;BME280_temperature;BME280_humidity;BME280_pressure;Samples;Min_cycle;Max_cycle;Signal;HPM_P1;HPM_P2
2022/09/15 00:01:42;;;;;;;2.25;1.85;;;18.10;84.40;;;;;;1917948;74;21110;-65
2022/09/15 00:04:12;;;;;;;2.75;1.80;;;18.10;84.20;;;;;;1918012;74;21047;-65
2022/09/15 00:06:41;;;;;;;5.53;1.92;;;18.00;84.40;;;;;;1918088;74;21044;-65
2022/09/15 00:09:10;;;;;;;2.65;1.70;;;17.90;84.80;;;;;;1918000;75;21031;-65
2022/09/15 00:11:40;;;;;;;2.47;1.70;;;17.90;85.10;;;;;;1918094;75;21031;-65
2022/09/15 00:14:09;;;;;;;1.80;1.67;;;18.00;85.30;;;;;;1918092;74;21004;-65
2022/09/15 00:16:39;;;;;;;1.77;1.55;;;18.00;85.50;;;;;;1917973;75;21093;-65
2022/09/15 00:19:08;;;;;;;5.90;1.95;;;18.00;85.70;;;;;;1918116;74;21093;-65
2022/09/15 00:21:39;;;;;;;2.85;2.10;;;18.10;85.70;;;;;;1917996;74;21095;-65
2022/09/15 00:24:09;;;;;;;2.15;1.70;;;18.10;85.50;;;;;;1918038;75;21027;-65
2022/09/15 00:26:39;;;;;;;2.00;1.70;;;18.10;85.30;;;;;;1918101;75;21024;-65
2022/09/15 00:29:10;;;;;;;3.33;1.90;;;18.10;85.40;;;;;;1918159;75;21043;-65
2022/09/15 00:31:39;;;;;;;2.70;2.08;;;18.00;85.50;;;;;;1917999;75;21027;-64
2022/09/15 00:34:10;;;;;;;4.25;1.87;;;18.00;85.70;;;;;;1917881;74;21180;-64
2022/09/15 00:36:39;;;;;;;3.95;1.67;;;18.00;86.00;;;;;;1918077;75;21084;-65
2022/09/15 00:39:09;;;;;;;2.30;1.67;;;18.00;86.20;;;;;;1918006;75;21129;-64
2022/09/15 00:41:40;;;;;;;4.40;2.12;;;18.10;86.40;;;;;;1917879;75;21098;-65
2022/09/15 00:44:36;;;;;;;2.02;1.57;;;18.10;86.50;;;;;;1918074;75;21015;-65
2022/09/15 00:47:07;;;;;;;4.67;2.40;;;18.20;86.60;;;;;;1918055;74;21019;-65
2022/09/15 00:49:38;;;;;;;2.10;1.90;;;18.20;86.60;;;;;;1918252;74;21097;-65
2022/09/15 00:52:16;;;;;;;3.15;1.82;;;18.20;86.60;;;;;;1917997;75;21028;-65
2022/09/15 00:54:53;;;;;;;4.20;1.75;;;18.30;86.70;;;;;;1917737;74;21090;-65
2022/09/15 00:57:34;;;;;;;2.77;2.20;;;18.30;86.70;;;;;;1917988;74;21105;-64
2022/09/15 01:00:06;;;;;;;2.17;2.02;;;18.30;86.70;;;;;;1918150;75;21047;-65
2022/09/15 01:02:37;;;;;;;2.08;1.70;;;18.30;86.70;;;;;;1918048;74;21047;-65
2022/09/15 01:05:09;;;;;;;2.95;2.05;;;18.30;86.80;;;;;;1917949;75;21035;-65
2022/09/15 01:07:46;;;;;;;3.05;1.75;;;18.30;86.80;;;;;;1918075;75;21486;-65
2022/09/15 01:10:19;;;;;;;2.40;2.10;;;18.30;86.70;;;;;;1918082;75;21110;-65
2022/09/15 01:12:48;;;;;;;2.45;2.22;;;18.30;86.80;;;;;;1916713;75;21458;-65
2022/09/15 01:15:17;;;;;;;1.67;1.57;;;18.30;86.90;;;;;;1917926;75;21035;-65
2022/09/15 01:17:58;;;;;;;2.77;1.80;;;18.30;87.10;;;;;;1917946;75;21028;-65
2022/09/15 01:20:33;;;;;;;3.77;2.10;;;18.20;87.10;;;;;;1917328;74;21117;-65
2022/09/15 01:23:06;;;;;;;;;;;18.20;87.30;;;;;;1918763;74;21028;-65
2022/09/15 01:25:38;;;;;;;2.62;1.95;;;18.20;87.60;;;;;;1917965;74;20154;-64
2022/09/15 01:28:16;;;;;;;2.40;1.82;;;18.20;86.90;;;;;;1916935;74;21020;-64
2022/09/15 01:30:56;;;;;;;3.47;1.80;;;18.20;87.10;;;;;;1917514;75;21043;-64
2022/09/15 01:33:37;;;;;;;2.00;1.80;;;18.30;86.90;;;;;;1913720;74;21024;-65
2022/09/15 01:36:21;;;;;;;4.75;1.85;;;18.30;86.90;;;;;;1913793;75;21051;-66
2022/09/15 01:39:05;;;;;;;2.35;2.15;;;18.30;86.90;;;;;;1901239;75;21066;-65
2022/09/15 01:41:37;;;;;;;2.00;1.80;;;18.30;86.80;;;;;;1905403;74;21071;-65
2022/09/15 01:44:09;;;;;;;6.25;1.75;;;18.30;86.80;;;;;;1917970;74;21089;-66
2022/09/15 01:46:43;;;;;;;3.12;1.80;;;18.30;86.90;;;;;;1917636;75;21051;-65
2022/09/15 01:49:14;;;;;;;3.05;1.85;;;18.30;86.90;;;;;;1918069;74;21132;-65
2022/09/15 01:51:45;;;;;;;3.17;1.85;;;18.40;86.80;;;;;;1915573;75;21477;-65
2022/09/15 01:54:16;;;;;;;3.52;1.90;;;18.40;86.70;;;;;;1918013;74;21094;-65
2022/09/15 01:56:45;;;;;;;2.47;1.72;;;18.40;86.50;;;;;;1917987;75;21153;-65
2022/09/15 01:59:15;;;;;;;2.30;1.50;;;18.50;86.50;;;;;;1918078;75;21103;-65
2022/09/15 02:01:49;;;;;;;1.62;1.50;;;18.50;86.40;;;;;;1917839;74;21063;-65
2022/09/15 02:04:29;;;;;;;2.40;1.62;;;18.60;86.40;;;;;;1918028;74;21003;-65
2022/09/15 02:07:22;;;;;;;2.37;2.12;;;18.60;86.20;;;;;;1918065;74;21085;-65
2022/09/15 02:09:57;;;;;;;3.55;1.35;;;18.70;86.20;;;;;;1917777;74;21035;-65
2022/09/15 02:12:36;;;;;;;;;;;18.70;86.00;;;;;;1920457;74;21032;-65
2022/09/15 02:15:14;;;;;;;3.58;1.35;;;18.70;85.90;;;;;;1917924;74;20154;-65
2022/09/15 02:17:46;;;;;;;2.75;1.85;;;18.80;85.70;;;;;;1918116;74;21015;-65
2022/09/15 02:20:24;;;;;;;1.87;1.70;;;18.80;85.50;;;;;;1917472;74;21536;-64
2022/09/15 02:22:56;;;;;;;4.25;1.90;;;18.90;85.40;;;;;;1917873;74;21105;-65
2022/09/15 02:25:35;;;;;;;2.70;2.30;;;18.80;85.20;;;;;;1918219;75;21078;-65
2022/09/15 02:28:06;;;;;;;3.20;1.70;;;18.90;85.20;;;;;;1917022;74;21036;-65
2022/09/15 02:30:44;;;;;;;1.70;1.40;;;18.90;85.10;;;;;;1918050;74;21063;-65
2022/09/15 02:33:12;;;;;;;2.85;1.45;;;18.90;85.00;;;;;;1916966;74;21031;-65
2022/09/15 02:35:43;;;;;;;3.60;1.65;;;18.90;85.00;;;;;;1932290;73;21508;-65
2022/09/15 02:38:13;;;;;;;1.62;1.47;;;18.90;84.90;;;;;;1937644;73;21035;-65
2022/09/15 02:40:44;;;;;;;2.00;1.70;;;19.00;84.90;;;;;;1937563;73;21038;-65
2022/09/15 02:43:15;;;;;;;15.63;1.77;;;19.00;84.90;;;;;;1937533;73;21010;-65
2022/09/15 02:45:45;;;;;;;2.70;1.50;;;19.00;84.90;;;;;;1937654;74;21026;-65
2022/09/15 02:48:14;;;;;;;5.67;1.95;;;19.00;84.80;;;;;;1937533;74;21014;-65
2022/09/15 02:50:44;;;;;;;1.85;1.75;;;19.00;84.70;;;;;;1937526;73;21031;-65
2022/09/15 02:53:13;;;;;;;2.67;2.00;;;19.00;84.60;;;;;;1937658;73;21047;-65
2022/09/15 02:55:43;;;;;;;2.77;1.72;;;19.00;84.40;;;;;;1937513;73;21074;-65
2022/09/15 02:58:12;;;;;;;3.37;1.80;;;19.10;84.10;;;;;;1937637;74;21046;-65
2022/09/15 03:00:41;;;;;;;1.95;1.47;;;19.10;84.00;;;;;;1937483;73;21027;-65
2022/09/15 03:03:12;;;;;;;3.55;2.65;;;19.10;83.90;;;;;;1937481;73;21509;-65
2022/09/15 03:05:41;;;;;;;3.08;1.80;;;19.10;83.70;;;;;;1937584;73;21026;-65
2022/09/15 03:08:10;;;;;;;2.27;2.00;;;19.10;83.70;;;;;;1937610;73;21097;-66
2022/09/15 03:10:39;;;;;;;3.10;1.70;;;19.10;83.60;;;;;;1937453;73;21093;-66
2022/09/15 03:13:09;;;;;;;4.80;1.98;;;19.10;83.50;;;;;;1937528;73;21038;-66
2022/09/15 03:15:38;;;;;;;3.08;1.87;;;19.20;83.50;;;;;;1937476;74;21027;-65
2022/09/15 03:18:07;;;;;;;5.47;1.80;;;19.20;83.40;;;;;;1937526;74;21025;-66
2022/09/15 03:20:37;;;;;;;1.60;1.50;;;19.20;83.30;;;;;;1937610;73;21096;-66
2022/09/15 03:23:06;;;;;;;4.15;2.58;;;19.20;83.30;;;;;;1937461;73;21157;-66
2022/09/15 03:25:35;;;;;;;4.15;1.85;;;19.20;83.10;;;;;;1937494;74;21034;-66
2022/09/15 03:28:04;;;;;;;2.10;1.77;;;19.20;83.00;;;;;;1937655;73;20995;-65
2022/09/15 03:30:34;;;;;;;5.97;1.60;;;19.20;83.00;;;;;;1937672;74;21068;-66
2022/09/15 03:33:03;;;;;;;3.72;1.70;;;19.20;82.90;;;;;;1937732;74;21136;-66
2022/09/15 03:35:32;;;;;;;1.77;1.60;;;19.20;82.90;;;;;;1937661;73;21493;-66
2022/09/15 03:38:02;;;;;;;6.33;2.12;;;19.20;83.00;;;;;;1937610;74;21015;-66
2022/09/15 03:40:32;;;;;;;2.10;1.90;;;19.20;83.10;;;;;;1937757;74;21007;-66
2022/09/15 03:43:01;;;;;;;8.05;2.33;;;19.20;83.00;;;;;;1937675;73;21108;-66
2022/09/15 03:45:31;;;;;;;5.47;1.90;;;19.20;83.10;;;;;;1937605;73;21093;-66
2022/09/15 03:48:00;;;;;;;4.03;1.55;;;19.20;83.00;;;;;;1937726;73;21019;-66
2022/09/15 03:50:29;;;;;;;4.17;2.22;;;19.30;83.00;;;;;;1937654;74;21031;-65
2022/09/15 03:53:00;;;;;;;5.28;2.02;;;19.30;82.90;;;;;;1937765;73;21015;-66
2022/09/15 03:55:30;;;;;;;4.10;2.60;;;19.30;82.70;;;;;;1937734;74;21035;-65
2022/09/15 03:57:59;;;;;;;2.02;1.40;;;19.30;82.70;;;;;;1937611;74;21003;-65
2022/09/15 04:00:29;;;;;;;4.60;1.75;;;19.30;82.60;;;;;;1937694;73;21206;-65
2022/09/15 04:02:58;;;;;;;3.80;1.50;;;19.30;82.50;;;;;;1937655;73;21031;-65
2022/09/15 04:05:28;;;;;;;1.92;1.70;;;19.40;82.50;;;;;;1937560;74;21058;-65
2022/09/15 04:07:57;;;;;;;4.28;1.60;;;19.40;82.50;;;;;;1937699;74;21118;-65
2022/09/15 04:10:27;;;;;;;2.58;1.40;;;19.40;82.40;;;;;;1937621;73;21148;-65
2022/09/15 04:12:56;;;;;;;5.75;2.30;;;19.40;82.30;;;;;;1937644;73;21058;-65
2022/09/15 04:15:26;;;;;;;3.37;1.47;;;19.40;82.20;;;;;;1937542;74;21034;-65
2022/09/15 04:17:55;;;;;;;3.42;1.90;;;19.40;82.00;;;;;;1937686;74;21031;-65
2022/09/15 04:20:25;;;;;;;2.95;1.45;;;19.40;82.00;;;;;;1937693;73;21097;-65
2022/09/15 04:22:54;;;;;;;4.87;1.87;;;19.40;81.80;;;;;;1937606;73;21097;-65
2022/09/15 04:25:24;;;;;;;6.30;2.10;;;19.40;81.70;;;;;;1937630;74;21113;-65
2022/09/15 04:27:53;;;;;;;10.35;2.08;;;19.50;81.80;;;;;;1937615;73;21015;-65
2022/09/15 04:30:23;;;;;;;4.50;2.10;;;19.50;81.80;;;;;;1937559;74;21015;-65
2022/09/15 04:32:52;;;;;;;6.55;2.37;;;19.50;81.70;;;;;;1937711;74;21077;-65
2022/09/15 04:35:22;;;;;;;6.20;2.30;;;19.50;81.70;;;;;;1937460;73;21085;-65
2022/09/15 04:37:53;;;;;;;4.35;2.58;;;19.50;81.60;;;;;;1937549;73;21055;-65
2022/09/15 04:40:22;;;;;;;11.78;2.10;;;19.50;81.60;;;;;;1937535;73;21477;-65
2022/09/15 04:42:52;;;;;;;3.10;1.60;;;19.50;81.60;;;;;;1937525;74;21022;-65
2022/09/15 04:45:22;;;;;;;4.12;1.70;;;19.40;81.50;;;;;;1937614;74;21136;-65
2022/09/15 04:47:52;;;;;;;4.35;1.82;;;19.50;81.40;;;;;;1937674;74;21031;-65
2022/09/15 04:50:21;;;;;;;2.85;1.45;;;19.50;81.30;;;;;;1937562;73;21082;-65
2022/09/15 04:52:51;;;;;;;3.70;1.52;;;19.50;81.20;;;;;;1937549;74;21023;-65
2022/09/15 04:55:20;;;;;;;2.92;1.42;;;19.50;81.10;;;;;;1937547;74;21031;-65
2022/09/15 04:57:49;;;;;;;4.45;1.95;;;19.60;81.10;;;;;;1937578;74;21106;-65
2022/09/15 05:00:19;;;;;;;2.58;1.50;;;19.60;81.00;;;;;;1937576;73;21031;-65
2022/09/15 05:02:48;;;;;;;3.70;1.60;;;19.60;80.90;;;;;;1937412;73;21039;-65
2022/09/15 05:05:18;;;;;;;2.75;1.35;;;19.60;80.80;;;;;;1937723;73;20995;-66
2022/09/15 05:07:50;;;;;;;2.55;1.40;;;19.60;80.60;;;;;;1937657;74;21124;-65
2022/09/15 05:10:20;;;;;;;2.65;1.50;;;19.70;80.50;;;;;;1937640;73;21062;-65
2022/09/15 05:12:49;;;;;;;2.00;1.50;;;19.70;80.50;;;;;;1937731;73;21003;-65
2022/09/15 05:15:19;;;;;;;5.10;2.05;;;19.70;80.40;;;;;;1937747;73;21088;-65
2022/09/15 05:17:48;;;;;;;2.95;2.10;;;19.70;80.30;;;;;;1937649;74;21089;-65
2022/09/15 05:20:18;;;;;;;3.95;1.95;;;19.80;80.20;;;;;;1937536;74;21100;-65
2022/09/15 05:22:47;;;;;;;3.15;1.70;;;19.80;80.00;;;;;;1937424;73;21058;-65
2022/09/15 05:25:17;;;;;;;2.42;1.30;;;19.80;79.90;;;;;;1937651;73;21078;-66
2022/09/15 05:27:47;;;;;;;1.98;1.45;;;19.80;79.50;;;;;;1937542;73;21298;-65
2022/09/15 05:30:16;;;;;;;4.47;2.10;;;19.80;79.30;;;;;;1937466;74;21126;-65
2022/09/15 05:32:45;;;;;;;7.78;1.72;;;19.80;79.40;;;;;;1937578;73;21027;-66
2022/09/15 05:35:15;;;;;;;4.62;2.08;;;19.80;79.00;;;;;;1937588;73;21023;-64
2022/09/15 05:37:44;;;;;;;4.17;2.33;;;19.80;79.60;;;;;;1924815;74;21059;-64
2022/09/15 05:40:14;;;;;;;4.30;2.80;;;19.80;80.70;;;;;;1921345;74;21121;-65
2022/09/15 05:42:43;;;;;;;7.58;2.80;;;19.70;81.20;;;;;;1921379;74;21126;-64
2022/09/15 05:45:12;;;;;;;3.58;2.60;;;19.50;81.60;;;;;;1921384;74;21051;-64
2022/09/15 05:47:42;;;;;;;12.85;6.20;;;19.40;82.20;;;;;;1921499;75;21085;-67
2022/09/15 05:50:11;;;;;;;7.08;3.80;;;19.30;82.90;;;;;;1921385;75;21034;-67
2022/09/15 05:52:40;;;;;;;8.35;3.02;;;19.30;83.40;;;;;;1921338;75;21104;-64
2022/09/15 05:55:10;;;;;;;5.05;2.87;;;19.20;83.90;;;;;;1921306;74;21031;-64
2022/09/15 05:57:39;;;;;;;4.65;2.80;;;19.10;84.20;;;;;;1921318;74;21031;-64
2022/09/15 06:00:10;;;;;;;6.75;3.27;;;19.10;84.70;;;;;;1921263;74;21035;-64
2022/09/15 06:02:40;;;;;;;7.00;3.70;;;19.00;84.80;;;;;;1921298;74;21087;-67
2022/09/15 06:05:09;;;;;;;17.40;13.83;;;19.00;85.10;;;;;;1921287;75;21105;-65
2022/09/15 06:07:39;;;;;;;5.65;3.00;;;19.00;85.50;;;;;;1921221;74;21034;-65
2022/09/15 06:10:09;;;;;;;8.50;3.30;;;19.00;86.00;;;;;;1921264;75;21035;-65
2022/09/15 06:12:39;;;;;;;3.08;1.70;;;18.90;85.90;;;;;;1921288;74;21083;-65
2022/09/15 06:15:08;;;;;;;4.72;2.08;;;19.00;85.90;;;;;;1921584;75;21082;-65
2022/09/15 06:17:38;;;;;;;2.85;1.67;;;19.00;85.80;;;;;;1921359;75;21027;-65
2022/09/15 06:20:08;;;;;;;3.62;1.95;;;19.00;85.60;;;;;;1921320;74;21082;-65
2022/09/15 06:22:37;;;;;;;7.17;2.70;;;19.10;86.10;;;;;;1921398;75;21043;-65
2022/09/15 06:25:07;;;;;;;3.90;2.22;;;19.10;86.10;;;;;;1921321;74;21027;-65
2022/09/15 06:27:37;;;;;;;3.50;2.30;;;19.20;86.10;;;;;;1921493;75;21036;-65
2022/09/15 06:30:07;;;;;;;2.87;1.70;;;19.20;86.30;;;;;;1921336;74;21031;-65
2022/09/15 06:32:36;;;;;;;2.27;2.00;;;19.20;86.70;;;;;;1921458;74;21031;-65
2022/09/15 06:35:06;;;;;;;4.00;2.62;;;19.20;86.90;;;;;;1921347;74;21039;-65
2022/09/15 06:37:35;;;;;;;5.60;2.62;;;19.20;87.20;;;;;;1921362;73;21067;-65
2022/09/15 06:40:08;;;;;;;3.80;2.25;;;19.20;87.30;;;;;;1921467;74;21074;-65
2022/09/15 06:42:37;;;;;;;2.37;1.87;;;19.20;87.60;;;;;;1921394;75;21101;-65
2022/09/15 06:45:07;;;;;;;2.17;1.72;;;19.20;87.50;;;;;;1921288;74;21191;-65
2022/09/15 06:47:37;;;;;;;2.45;2.05;;;19.20;87.70;;;;;;1921451;74;21148;-65
2022/09/15 06:50:07;;;;;;;3.15;2.10;;;19.20;87.80;;;;;;1921347;75;21031;-65
2022/09/15 06:52:36;;;;;;;2.95;1.87;;;19.20;87.80;;;;;;1921315;74;21008;-65
2022/09/15 06:55:06;;;;;;;6.85;3.72;;;19.30;88.00;;;;;;1921415;74;21031;-65
2022/09/15 06:57:35;;;;;;;5.47;3.90;;;19.30;88.30;;;;;;1921333;74;21027;-65
2022/09/15 07:00:06;;;;;;;8.18;5.67;;;19.30;88.40;;;;;;1921274;75;21114;-65
2022/09/15 07:02:35;;;;;;;9.08;5.33;;;19.40;88.70;;;;;;1921395;75;21110;-65
2022/09/15 07:05:05;;;;;;;3.62;2.42;;;19.40;88.50;;;;;;1921291;74;21043;-65
2022/09/15 07:07:34;;;;;;;4.47;2.83;;;19.40;88.20;;;;;;1921267;75;21126;-65
2022/09/15 07:10:05;;;;;;;2.60;1.70;;;19.50;88.60;;;;;;1921265;75;21003;-65
2022/09/15 07:12:34;;;;;;;4.33;1.70;;;19.50;87.90;;;;;;1921277;74;21059;-65
2022/09/15 07:15:04;;;;;;;2.83;1.67;;;19.60;87.70;;;;;;1921255;75;21044;-65
2022/09/15 07:17:33;;;;;;;2.65;1.45;;;19.60;87.60;;;;;;1921406;75;21023;-65
2022/09/15 07:20:03;;;;;;;2.17;1.52;;;19.70;87.30;;;;;;1921360;74;21136;-65
2022/09/15 07:22:33;;;;;;;2.77;1.70;;;19.80;87.10;;;;;;1921270;75;21105;-65
2022/09/15 07:25:02;;;;;;;5.25;2.30;;;19.80;86.90;;;;;;1921206;75;21036;-65
2022/09/15 07:27:31;;;;;;;4.50;2.15;;;19.90;86.80;;;;;;1921416;74;21035;-65
2022/09/15 07:30:01;;;;;;;4.12;2.10;;;19.90;86.80;;;;;;1921257;74;21000;-65
2022/09/15 07:32:30;;;;;;;3.17;2.22;;;19.90;86.60;;;;;;1921292;75;21008;-65
2022/09/15 07:35:00;;;;;;;4.22;1.50;;;20.00;86.40;;;;;;1921370;75;21012;-65
2022/09/15 07:37:31;;;;;;;3.08;1.52;;;20.00;86.10;;;;;;1921392;75;21196;-64
2022/09/15 07:40:00;;;;;;;3.65;1.60;;;20.10;86.30;;;;;;1921538;75;21035;-65
2022/09/15 07:42:31;;;;;;;2.05;1.35;;;20.20;85.30;;;;;;1921353;75;21098;-65
2022/09/15 07:45:00;;;;;;;2.85;1.42;;;20.30;84.60;;;;;;1921363;75;21052;-65
2022/09/15 07:47:35;;;;;;;3.15;1.25;;;20.40;83.80;;;;;;1921312;75;21024;-65
2022/09/15 07:50:09;;;;;;;11.57;1.90;;;20.50;82.60;;;;;;1932435;72;21613;-65
2022/09/15 07:52:42;;;;;;;2.70;1.55;;;20.60;82.20;;;;;;1937220;73;21140;-65
2022/09/15 07:55:12;;;;;;;1.90;1.35;;;20.70;81.90;;;;;;1943307;74;21078;-65
2022/09/15 07:57:41;;;;;;;4.62;2.02;;;20.80;81.00;;;;;;1943446;74;21041;-65
2022/09/15 08:00:11;;;;;;;1.92;1.22;;;20.90;80.40;;;;;;1943542;74;21134;-65
2022/09/15 08:02:43;;;;;;;3.20;1.12;;;21.00;79.40;;;;;;1943482;74;21033;-65
2022/09/15 08:05:12;;;;;;;2.30;1.60;;;21.20;78.80;;;;;;1943305;74;21033;-65
2022/09/15 08:07:42;;;;;;;7.35;2.02;;;21.30;78.80;;;;;;1943410;74;21030;-65
2022/09/15 08:10:11;;;;;;;8.68;1.50;;;21.30;78.00;;;;;;1943500;74;20994;-65
2022/09/15 08:12:41;;;;;;;4.08;1.62;;;21.40;77.80;;;;;;1943450;74;21577;-65
2022/09/15 08:15:10;;;;;;;3.83;1.65;;;21.40;77.50;;;;;;1943352;74;21134;-65
2022/09/15 08:17:39;;;;;;;2.67;1.37;;;21.60;77.20;;;;;;1943344;74;21017;-65
2022/09/15 08:20:09;;;;;;;3.05;1.60;;;21.70;76.10;;;;;;1943414;74;21039;-65
2022/09/15 08:22:40;;;;;;;2.05;1.67;;;21.90;76.40;;;;;;1943549;74;21091;-65
2022/09/15 08:25:09;;;;;;;2.55;1.00;;;22.10;75.50;;;;;;1943361;74;21009;-65
2022/09/15 08:27:38;;;;;;;4.35;1.50;;;22.20;75.10;;;;;;1943434;74;21025;-65
2022/09/15 08:30:08;;;;;;;2.40;1.20;;;22.40;74.10;;;;;;1943456;74;21001;-65
2022/09/15 08:32:38;;;;;;;1.95;1.07;;;22.40;73.50;;;;;;1943422;74;21102;-65
2022/09/15 08:35:08;;;;;;;7.15;3.52;;;22.40;71.90;;;;;;1943267;74;21103;-65
2022/09/15 08:37:37;;;;;;;2.08;1.20;;;22.40;72.40;;;;;;1943039;74;21162;-64
2022/09/15 08:40:08;;;;;;;1.87;1.22;;;22.40;72.00;;;;;;1942203;74;21033;-61
2022/09/15 08:42:38;;;;;;;2.45;1.07;;;22.40;72.20;;;;;;1942799;74;21440;-61
2022/09/15 08:45:10;;;;;;;2.42;0.90;;;22.50;72.30;;;;;;1942890;74;21102;-67
2022/09/15 08:47:42;;;;;;;3.37;1.35;;;22.50;71.70;;;;;;1941450;74;21546;-68
2022/09/15 08:50:29;;;;;;;5.22;1.37;;;22.60;71.50;;;;;;1942740;74;21539;-61
2022/09/15 08:56:03;;;;;;;2.12;1.00;;;22.90;71.10;;;;;;1942262;73;21028;-68
2022/09/15 08:58:37;;;;;;;1.50;1.15;;;23.00;70.60;;;;;;1941968;74;21109;-66
2022/09/15 09:01:11;;;;;;;1.23;1.10;;;23.10;70.70;;;;;;1942340;74;21101;-60
2022/09/15 09:03:43;;;;;;;1.60;0.95;;;23.10;70.30;;;;;;1926983;73;21540;-64
2022/09/15 09:06:32;;;;;;;4.37;1.40;;;23.10;69.90;;;;;;1918689;74;21055;-68
2022/09/15 09:09:10;;;;;;;5.03;1.22;;;23.20;69.50;;;;;;1918764;75;21081;-70
2022/09/15 09:12:04;;;;;;;1.27;1.02;;;23.20;70.00;;;;;;1908552;75;21508;-66
2022/09/15 09:14:45;;;;;;;1.43;1.03;;;23.20;69.60;;;;;;1919053;75;21043;-68
2022/09/15 09:17:37;;;;;;;4.65;1.30;;;23.20;69.60;;;;;;1918835;75;21110;-66
2022/09/15 09:20:26;;;;;;;2.67;1.02;;;23.20;69.80;;;;;;1918586;74;21026;-70
2022/09/15 09:22:57;;;;;;;2.98;1.10;;;23.30;69.30;;;;;;1918848;75;21097;-71
2022/09/15 09:25:27;;;;;;;2.33;1.10;;;23.30;69.50;;;;;;1918942;75;21125;-77
2022/09/15 09:27:58;;;;;;;3.80;1.10;;;23.40;68.90;;;;;;1918761;75;21152;-65
2022/09/15 09:30:30;;;;;;;1.67;0.70;;;23.40;68.70;;;;;;1918716;75;21101;-68
2022/09/15 09:33:20;;;;;;;2.22;1.02;;;23.40;68.50;;;;;;1918895;74;21505;-67
2022/09/15 09:35:53;;;;;;;2.65;0.95;;;23.50;67.50;;;;;;1918013;74;21046;-65
2022/09/15 09:38:27;;;;;;;4.83;1.10;;;23.50;67.80;;;;;;1918945;75;21030;-63
2022/09/15 09:40:57;;;;;;;3.72;1.10;;;23.60;67.30;;;;;;1918970;75;21026;-62
2022/09/15 09:43:28;;;;;;;3.85;1.40;;;23.60;67.30;;;;;;1919034;75;21014;-62
2022/09/15 09:45:58;;;;;;;2.02;0.90;;;23.60;67.10;;;;;;1918741;75;21023;-69
2022/09/15 09:48:28;;;;;;;4.53;1.10;;;23.70;67.00;;;;;;1918796;75;21144;-62
2022/09/15 09:50:58;;;;;;;1.12;1.02;;;23.70;67.20;;;;;;1918881;75;21026;-64
2022/09/15 09:53:32;;;;;;;3.75;1.00;;;23.80;66.90;;;;;;1918892;75;21104;-67
2022/09/15 09:56:25;;;;;;;1.98;1.25;;;23.80;66.40;;;;;;1918986;73;21108;-68
2022/09/15 09:58:54;;;;;;;3.55;1.37;;;23.80;66.60;;;;;;1918772;75;21101;-66
2022/09/15 10:01:25;;;;;;;2.70;1.75;;;23.70;67.10;;;;;;1918846;75;21144;-70
2022/09/15 10:04:18;;;;;;;3.15;1.10;;;23.70;67.30;;;;;;1918915;74;21062;-66
2022/09/15 10:06:48;;;;;;;2.45;1.00;;;23.70;66.90;;;;;;1918717;75;21019;-64
2022/09/15 10:09:18;;;;;;;1.42;1.20;;;23.60;67.20;;;;;;1918817;75;21473;-69
2022/09/15 10:11:57;;;;;;;2.80;1.07;;;23.60;67.50;;;;;;1918796;75;21015;-65
2022/09/15 10:14:29;;;;;;;1.80;1.20;;;23.60;67.40;;;;;;1918894;75;21063;-62
2022/09/15 10:17:00;;;;;;;1.35;0.80;;;23.60;68.10;;;;;;1907335;75;21086;-64
2022/09/15 10:19:33;;;;;;;3.20;1.37;;;23.60;68.10;;;;;;1916605;74;21019;-63
2022/09/15 10:22:03;;;;;;;2.45;1.32;;;23.60;68.20;;;;;;1918796;75;21127;-62
2022/09/15 10:24:43;;;;;;;1.82;0.95;;;23.60;68.60;;;;;;1918837;75;21042;-62
2022/09/15 10:27:26;;;;;;;4.92;1.55;;;23.60;68.50;;;;;;1918886;75;21038;-61
2022/09/15 10:29:56;;;;;;;1.12;1.00;;;23.60;68.20;;;;;;1918836;75;21082;-61
2022/09/15 12:08:54;;;;;;;1.87;1.10;;;23.60;66.50;;;;;;1958403;73;25749;-64
2022/09/15 12:11:26;;;;;;;1.02;0.80;;;23.60;67.00;;;;;;1917660;75;21051;-67
2022/09/15 12:13:56;;;;;;;2.35;1.10;;;23.70;67.10;;;;;;1917769;75;21496;-71
2022/09/15 12:16:26;;;;;;;3.30;1.35;;;23.80;67.00;;;;;;1917500;75;21010;-67
2022/09/15 12:18:58;;;;;;;2.42;1.10;;;23.90;67.00;;;;;;1917341;75;21190;-65
2022/09/15 12:21:38;;;;;;;19.98;4.87;;;23.90;67.10;;;;;;1917611;75;21481;-66
2022/09/15 12:24:32;;;;;;;3.83;0.98;;;24.00;67.30;;;;;;1915752;74;21454;-68
2022/09/15 12:27:02;;;;;;;3.45;1.10;;;24.10;67.20;;;;;;1913964;75;21116;-66
2022/09/15 12:29:33;;;;;;;1.50;1.00;;;24.20;66.90;;;;;;1913656;75;21026;-66
2022/09/15 12:32:22;;;;;;;2.65;0.80;;;24.30;67.10;;;;;;1907585;75;21571;-66
2022/09/15 12:35:19;;;;;;;1.17;0.80;;;24.20;67.20;;;;;;1913728;75;21093;-66
2022/09/15 12:37:51;;;;;;;3.30;1.00;;;24.20;67.50;;;;;;1912049;75;21085;-71
2022/09/15 12:40:32;;;;;;;3.25;0.80;;;24.10;67.60;;;;;;1913624;75;21139;-64
2022/09/15 12:43:04;;;;;;;2.75;0.90;;;24.00;68.10;;;;;;1913812;75;21061;-66
2022/09/15 12:45:37;;;;;;;2.98;1.15;;;24.00;68.40;;;;;;1913198;75;21480;-69
2022/09/15 12:48:21;;;;;;;1.90;1.10;;;24.00;68.80;;;;;;1913700;75;21084;-65
2022/09/15 12:51:03;;;;;;;3.00;1.62;;;24.00;69.00;;;;;;1912310;75;21581;-66
2022/09/15 12:53:36;;;;;;;0.70;0.70;;;23.90;69.10;;;;;;1913718;75;21108;-67
2022/09/15 12:56:11;;;;;;;1.95;1.12;;;23.90;69.10;;;;;;1913955;75;21103;-67
2022/09/15 12:58:43;;;;;;;2.33;0.90;;;23.90;68.90;;;;;;1911683;75;21097;-65
2022/09/15 13:01:27;;;;;;;2.52;0.90;;;23.90;69.10;;;;;;1913926;75;21034;-73
2022/09/15 13:04:05;;;;;;;1.17;0.95;;;23.80;69.20;;;;;;1914107;75;21049;-73
2022/09/15 13:06:34;;;;;;;2.67;0.80;;;23.70;69.10;;;;;;1913853;75;21026;-64
2022/09/15 13:09:06;;;;;;;3.42;0.88;;;23.70;69.20;;;;;;1913758;75;21022;-65
2022/09/15 13:11:38;;;;;;;1.45;0.72;;;23.70;69.40;;;;;;1913888;75;21088;-65
2022/09/15 13:14:22;;;;;;;1.10;0.72;;;23.70;69.40;;;;;;1912578;75;21562;-64
2022/09/15 13:16:57;;;;;;;1.42;0.80;;;23.60;69.40;;;;;;1905327;75;21002;-65
2022/09/15 13:19:42;;;;;;;1.50;0.72;;;23.60;69.70;;;;;;1913525;75;21466;-73
2022/09/15 13:22:12;;;;;;;;;;;23.60;69.70;;;;;;1916835;75;21112;-61
2022/09/15 13:25:05;;;;;;;5.80;0.70;;;23.60;69.90;;;;;;1913875;75;20103;-61
2022/09/15 13:27:46;;;;;;;2.60;0.95;;;23.60;70.10;;;;;;1913981;75;21100;-62
2022/09/15 13:30:24;;;;;;;3.15;1.20;;;23.50;70.50;;;;;;1913874;75;20990;-61
2022/09/15 13:33:05;;;;;;;3.35;0.80;;;23.50;70.50;;;;;;1913847;75;21088;-61
2022/09/15 13:36:02;;;;;;;4.45;1.00;;;23.50;70.70;;;;;;1912232;75;21022;-62
2022/09/15 13:38:44;;;;;;;4.45;0.90;;;23.50;70.60;;;;;;1913893;75;21132;-61
2022/09/15 13:41:34;;;;;;;5.22;1.15;;;23.40;70.40;;;;;;1912943;75;21041;-61
2022/09/15 13:44:28;;;;;;;3.67;1.20;;;23.30;70.60;;;;;;1912734;75;21022;-62
2022/09/15 13:47:27;;;;;;;3.85;1.02;;;23.30;70.90;;;;;;1912692;75;21053;-62
2022/09/15 13:50:27;;;;;;;2.27;0.80;;;23.30;70.90;;;;;;1913854;75;21042;-61
2022/09/15 13:53:15;;;;;;;1.40;0.75;;;23.20;70.80;;;;;;1913609;75;21108;-61
2022/09/15 13:55:45;;;;;;;5.70;0.85;;;23.10;70.90;;;;;;1913621;75;21046;-61
2022/09/15 13:58:17;;;;;;;2.85;1.10;;;23.10;71.00;;;;;;1913662;75;21105;-61
2022/09/15 14:01:01;;;;;;;3.87;1.77;;;23.10;71.00;;;;;;1913624;75;21119;-61
2022/09/15 14:03:51;;;;;;;2.87;0.93;;;23.00;70.90;;;;;;1912628;75;21096;-61
2022/09/15 14:06:35;;;;;;;6.87;1.15;;;23.00;71.00;;;;;;1912461;75;21069;-61
2022/09/15 14:09:10;;;;;;;1.72;0.70;;;23.00;71.60;;;;;;1913754;75;21042;-61
2022/09/15 14:11:39;;;;;;;;;;;23.00;71.10;;;;;;1916483;75;21524;-61
2022/09/15 14:14:11;;;;;;;2.77;1.10;;;22.90;71.20;;;;;;1913634;75;20359;-61
2022/09/15 14:16:41;;;;;;;3.90;2.10;;;22.90;71.20;;;;;;1912839;75;21488;-61
2022/09/15 14:19:32;;;;;;;4.22;1.37;;;22.90;71.30;;;;;;1913232;75;21078;-61
2022/09/15 14:22:26;;;;;;;1.37;0.82;;;22.90;71.50;;;;;;1908234;75;21042;-61
2022/09/15 14:25:01;;;;;;;1.60;1.03;;;22.90;71.40;;;;;;1914132;75;21038;-61
2022/09/15 14:27:35;;;;;;;1.60;1.10;;;22.80;71.50;;;;;;1922732;74;21065;-61
2022/09/15 14:30:07;;;;;;;4.47;1.40;;;22.90;71.70;;;;;;1923858;74;21115;-60
2022/09/15 14:32:41;;;;;;;1.50;1.40;;;22.80;71.90;;;;;;1921716;74;21022;-61
2022/09/15 14:35:11;;;;;;;;;;;22.80;72.10;;;;;;1926462;74;21088;-61
2022/09/15 14:37:40;;;;;;;2.55;0.90;;;22.80;72.50;;;;;;1923686;74;20133;-61
2022/09/15 14:40:18;;;;;;;3.67;1.20;;;22.70;72.30;;;;;;1923635;74;21030;-60
2022/09/15 14:42:47;;;;;;;2.67;1.25;;;22.70;72.40;;;;;;1923491;74;21094;-60
2022/09/15 14:45:23;;;;;;;1.65;1.02;;;22.70;72.40;;;;;;1923639;74;21071;-61
2022/09/15 14:48:04;;;;;;;2.72;0.90;;;22.70;72.60;;;;;;1923747;74;21100;-61
2022/09/15 14:50:33;;;;;;;3.90;0.95;;;22.70;72.70;;;;;;1923753;74;21018;-61
2022/09/15 14:53:20;;;;;;;2.22;0.90;;;22.70;72.90;;;;;;1923752;74;21006;-61
2022/09/15 14:56:11;;;;;;;2.15;0.82;;;22.70;73.00;;;;;;1923568;74;21017;-61
2022/09/15 14:58:43;;;;;;;2.45;0.78;;;22.70;73.00;;;;;;1923520;74;21521;-61